createdAt,value
2023-10-23T00:01:59.027Z,99568.22
2023-10-23T00:04:26.253Z,99569.25
2023-10-23T00:06:53.474Z,99562.25
2023-10-23T00:09:21.561Z,99559.97
2023-10-23T00:11:48.614Z,99563.69
2023-10-23T00:14:15.592Z,99560.19
2023-10-23T00:16:42.614Z,99566.56
2023-10-23T00:19:09.612Z,99570.06
2023-10-23T00:21:36.641Z,99578.09
2023-10-23T00:24:03.912Z,99574.59
2023-10-23T00:26:30.869Z,99566.56
2023-10-23T00:28:59.127Z,99571.09
2023-10-23T00:31:26.200Z,99568.44
2023-10-23T00:33:53.369Z,99572.75
2023-10-23T00:36:20.551Z,99570.06
2023-10-23T00:38:47.668Z,99575.41
2023-10-23T00:41:15.382Z,99569.03
2023-10-23T00:43:42.529Z,99576.22
2023-10-23T00:46:16.125Z,99573.78
2023-10-23T00:48:44.137Z,99571.09
2023-10-23T00:51:13.390Z,99573.97
2023-10-23T00:53:42.821Z,99569.63
2023-10-23T00:56:11.820Z,99575.19
2023-10-23T00:58:41.435Z,99566.34
2023-10-23T01:01:14.255Z,99566.56
2023-10-23T01:03:42.933Z,99567.59
2023-10-23T01:06:11.154Z,99559.59
2023-10-23T01:08:38.750Z,99559.59
2023-10-23T01:11:06.430Z,99560.63
2023-10-23T01:13:33.586Z,99559.59
2023-10-23T01:16:00.572Z,99554.25
2023-10-23T01:18:27.720Z,99556.09
2023-10-23T01:20:54.857Z,99554.25
2023-10-23T01:23:29.686Z,99558.34
2023-10-23T01:25:56.667Z,99560.41
2023-10-23T01:28:23.685Z,99561.63
2023-10-23T01:30:50.832Z,99568.81
2023-10-23T01:33:18.069Z,99560.41
2023-10-23T01:35:45.260Z,99563.28
2023-10-23T01:38:15.809Z,99565.31
2023-10-23T01:40:42.814Z,99562.84
2023-10-23T01:43:09.845Z,99564.91
2023-10-23T01:45:37.347Z,99562.41
2023-10-23T01:48:05.215Z,99561.00
2023-10-23T01:50:32.344Z,99557.50
2023-10-23T01:52:59.333Z,99557.72
2023-10-23T01:55:26.337Z,99557.28
2023-10-23T01:57:53.334Z,99562.00
2023-10-23T02:00:20.447Z,99555.03
2023-10-23T02:02:47.547Z,99561.56
2023-10-23T02:05:14.596Z,99564.47
2023-10-23T02:07:41.629Z,99566.53
2023-10-23T02:10:09.278Z,99556.88
2023-10-23T02:12:36.476Z,99556.22
2023-10-23T02:15:05.300Z,99553.97
2023-10-23T02:17:33.250Z,99554.56
2023-10-23T02:20:00.522Z,99560.13
2023-10-23T02:22:27.598Z,99572.22
2023-10-23T02:24:54.704Z,99563.81
2023-10-23T02:27:21.745Z,99564.00
2023-10-23T02:29:48.709Z,99566.03
2023-10-23T02:32:15.971Z,99564.41
2023-10-23T02:34:44.175Z,99565.41
2023-10-23T02:37:11.206Z,99566.84
2023-10-23T02:39:38.534Z,99575.88
2023-10-23T02:42:05.905Z,99569.31
2023-10-23T02:44:32.893Z,99560.47
2023-10-23T02:46:59.889Z,99566.41
2023-10-23T02:49:26.912Z,99566.41
2023-10-23T02:51:54.024Z,99568.47
2023-10-23T02:54:21.125Z,99562.69
2023-10-23T02:56:48.171Z,99562.44
2023-10-23T02:59:15.237Z,99566.97
2023-10-23T03:01:42.358Z,99564.72
2023-10-23T03:04:09.530Z,99563.88
2023-10-23T03:06:36.672Z,99565.91
2023-10-23T03:09:04.449Z,99572.09
2023-10-23T03:11:32.145Z,99572.09
2023-10-23T03:14:02.169Z,99566.75
2023-10-23T03:16:30.373Z,99566.75
2023-10-23T03:18:57.481Z,99570.44
2023-10-23T03:21:24.473Z,99568.78
2023-10-23T03:23:51.904Z,99564.28
2023-10-23T03:26:19.056Z,99565.09
2023-10-23T03:28:46.164Z,99569.22
2023-10-23T03:31:13.269Z,99569.22
2023-10-23T03:33:41.344Z,99562.25
2023-10-23T03:36:08.661Z,99572.94
2023-10-23T03:38:35.821Z,99566.75
2023-10-23T03:41:03.186Z,99562.25
2023-10-23T03:43:30.249Z,99563.88
2023-10-23T03:46:01.847Z,99557.72
2023-10-23T03:48:28.983Z,99572.94
2023-10-23T03:50:59.940Z,99566.75
2023-10-23T03:53:26.903Z,99560.16
2023-10-23T03:55:53.902Z,99560.16
2023-10-23T03:58:20.972Z,99560.16
2023-10-23T04:00:52.058Z,99558.53
2023-10-23T04:03:19.055Z,99563.03
2023-10-23T04:05:46.120Z,99562.22
2023-10-23T04:08:13.185Z,99550.72
2023-10-23T04:10:49.642Z,99556.88
2023-10-23T04:13:17.467Z,99556.88
2023-10-23T04:15:58.802Z,99551.88
2023-10-23T04:18:26.849Z,99545.72
2023-10-23T04:21:07.564Z,99548.59
2023-10-23T04:23:38.743Z,99537.94
2023-10-23T04:26:07.504Z,99535.28
2023-10-23T04:28:35.301Z,99537.13
2023-10-23T04:31:02.594Z,99537.31
2023-10-23T04:33:29.622Z,99541.81
2023-10-23T04:35:58.525Z,99542.00
2023-10-23T04:38:28.779Z,99540.38
2023-10-23T04:40:55.919Z,99542.00
2023-10-23T04:43:23.586Z,99533.38
2023-10-23T04:45:51.022Z,99536.06
2023-10-23T04:48:18.027Z,99527.44
2023-10-23T04:50:44.993Z,99525.16
2023-10-23T04:53:12.021Z,99525.34
2023-10-23T04:55:41.617Z,99519.41
2023-10-23T04:58:10.302Z,99516.91
2023-10-23T05:00:39.257Z,99524.91
2023-10-23T05:03:07.137Z,99521.84
2023-10-23T05:05:35.151Z,99523.69
2023-10-23T05:08:02.166Z,99513.59
2023-10-23T05:10:30.288Z,99518.09
2023-10-23T05:12:58.151Z,99511.13
2023-10-23T05:15:25.495Z,99519.97
2023-10-23T05:17:52.696Z,99512.97
2023-10-23T05:20:19.820Z,99513.59
2023-10-23T05:22:46.779Z,99513.59
2023-10-23T05:25:13.893Z,99513.59
2023-10-23T05:27:40.986Z,99519.75
2023-10-23T05:30:08.763Z,99510.72
2023-10-23T05:32:36.236Z,99519.75
2023-10-23T05:35:05.256Z,99522.41
2023-10-23T05:37:36.260Z,99527.75
2023-10-23T05:40:05.831Z,99518.94
2023-10-23T05:42:33.523Z,99528.38
2023-10-23T05:45:01.438Z,99523.03
2023-10-23T05:47:29.553Z,99522.22
2023-10-23T05:49:56.590Z,99528.19
2023-10-23T05:52:23.635Z,99526.34
2023-10-23T05:54:50.637Z,99522.66
2023-10-23T05:57:17.656Z,99536.63
2023-10-23T05:59:44.647Z,99530.25
2023-10-23T06:02:13.945Z,99532.91
2023-10-23T06:04:45.912Z,99532.91
2023-10-23T06:07:14.099Z,99531.91
2023-10-23T06:09:41.909Z,99541.75
2023-10-23T06:12:10.443Z,99534.59
2023-10-23T06:14:37.768Z,99540.75
2023-10-23T06:17:04.970Z,99532.53
2023-10-23T06:19:32.743Z,99540.53
2023-10-23T06:22:00.558Z,99535.81
2023-10-23T06:24:28.456Z,99543.63
2023-10-23T06:26:55.549Z,99546.13
2023-10-23T06:29:22.577Z,99539.97
2023-10-23T06:31:49.620Z,99541.41
2023-10-23T06:34:16.631Z,99544.06
2023-10-23T06:36:44.404Z,99542.41
2023-10-23T06:39:13.837Z,99545.09
2023-10-23T06:41:40.862Z,99545.91
2023-10-23T06:44:07.855Z,99541.41
2023-10-23T06:46:35.202Z,99536.88
2023-10-23T06:49:02.220Z,99537.91
2023-10-23T06:51:29.188Z,99536.25
2023-10-23T06:53:56.185Z,99540.78
2023-10-23T06:56:23.492Z,99537.91
2023-10-23T06:58:50.531Z,99537.69
2023-10-23T07:01:23.710Z,99542.22
2023-10-23T07:03:57.554Z,99532.97
2023-10-23T07:06:24.713Z,99530.97
2023-10-23T07:08:51.791Z,99537.53
2023-10-23T07:11:23.532Z,99539.84
2023-10-23T07:13:50.536Z,99549.91
2023-10-23T07:16:17.781Z,99552.81
2023-10-23T07:18:46.517Z,99557.34
2023-10-23T07:21:16.172Z,99556.75
2023-10-23T07:23:43.491Z,99560.47
2023-10-23T07:26:13.394Z,99554.72
2023-10-23T07:28:41.635Z,99554.50
2023-10-23T07:31:10.469Z,99548.16
2023-10-23T07:33:37.992Z,99536.47
2023-10-23T07:36:10.223Z,99530.47
2023-10-23T07:38:39.492Z,99530.47
2023-10-23T07:41:06.497Z,99526.78
2023-10-23T07:43:33.709Z,99526.59
2023-10-23T07:46:16.703Z,99507.72
2023-10-23T07:48:45.490Z,99509.34
2023-10-23T07:51:12.694Z,99501.13
2023-10-23T07:53:39.754Z,99510.59
2023-10-23T07:56:07.199Z,99512.25
2023-10-23T07:58:34.795Z,99506.47
2023-10-23T08:01:09.934Z,99497.25
2023-10-23T08:03:37.951Z,99496.03
2023-10-23T08:06:08.438Z,99490.28
2023-10-23T08:08:37.446Z,99492.53
2023-10-23T08:11:06.551Z,99499.53
2023-10-23T08:13:34.760Z,99499.13
2023-10-23T08:16:04.528Z,99492.75
2023-10-23T08:18:38.954Z,99500.34
2023-10-23T08:21:12.333Z,99505.69
2023-10-23T08:23:41.135Z,99497.28
2023-10-23T08:26:08.444Z,99499.75
2023-10-23T08:28:58.368Z,99494.81
2023-10-23T08:31:37.031Z,99485.34
2023-10-23T08:34:08.024Z,99478.38
2023-10-23T08:36:35.523Z,99482.09
2023-10-23T08:39:04.106Z,99482.25
2023-10-23T08:41:32.605Z,99484.31
2023-10-23T08:44:00.035Z,99491.31
2023-10-23T08:46:32.999Z,99494.41
2023-10-23T08:49:04.982Z,99491.31
2023-10-23T08:51:32.485Z,99479.19
2023-10-23T08:54:11.853Z,99468.06
2023-10-23T08:56:43.391Z,99472.56
2023-10-23T08:59:11.983Z,99474.22
2023-10-23T09:01:39.558Z,99471.13
2023-10-23T09:04:08.302Z,99475.88
2023-10-23T09:06:36.914Z,99477.69
2023-10-23T09:09:08.235Z,99483.44
2023-10-23T09:11:39.782Z,99478.50
2023-10-23T09:14:06.788Z,99490.84
2023-10-23T09:16:34.177Z,99487.91
2023-10-23T09:19:01.341Z,99488.53
2023-10-23T09:21:29.098Z,99485.84
2023-10-23T09:24:04.404Z,99482.91
2023-10-23T09:26:31.473Z,99481.03
2023-10-23T09:28:58.486Z,99475.47
2023-10-23T09:31:25.647Z,99468.44
2023-10-23T09:33:52.967Z,99460.38
2023-10-23T09:36:21.861Z,99459.47
2023-10-23T09:39:00.858Z,99467.69
2023-10-23T09:41:29.103Z,99467.06
2023-10-23T09:44:01.776Z,99462.94
2023-10-23T09:46:30.411Z,99461.66
2023-10-23T09:49:04.580Z,99463.31
2023-10-23T09:51:41.308Z,99453.63
2023-10-23T09:54:16.863Z,99460.41
2023-10-23T09:56:50.023Z,99457.31
2023-10-23T09:59:20.102Z,99455.69
2023-10-23T10:01:51.528Z,99456.69
2023-10-23T10:04:31.288Z,99466.22
2023-10-23T10:07:23.646Z,99463.53
2023-10-23T10:09:51.220Z,99454.69
2023-10-23T10:12:19.811Z,99452.59
2023-10-23T10:14:48.152Z,99447.81
2023-10-23T10:17:20.440Z,99453.00
2023-10-23T10:19:48.494Z,99455.03
2023-10-23T10:22:29.473Z,99453.03
2023-10-23T10:24:57.378Z,99453.03
2023-10-23T10:27:26.170Z,99454.69
2023-10-23T10:29:53.272Z,99444.38
2023-10-23T10:32:23.983Z,99438.19
2023-10-23T10:34:57.812Z,99427.94
2023-10-23T10:37:32.283Z,99415.97
2023-10-23T10:39:59.263Z,99408.97
2023-10-23T10:42:30.677Z,99411.41
2023-10-23T10:45:08.971Z,99406.28
2023-10-23T10:47:38.258Z,99397.00
2023-10-23T10:50:06.340Z,99387.72
2023-10-23T10:52:38.943Z,99384.22
2023-10-23T10:55:10.309Z,99373.28
2023-10-23T10:57:43.846Z,99368.28
2023-10-23T11:00:13.015Z,99372.19
2023-10-23T11:02:40.880Z,99363.69
2023-10-23T11:05:13.044Z,99365.13
2023-10-23T11:07:40.175Z,99362.81
2023-10-23T11:10:08.158Z,99352.72
2023-10-23T11:12:35.217Z,99346.31
2023-10-23T11:15:05.222Z,99348.56
2023-10-23T11:17:32.344Z,99348.94
2023-10-23T11:20:00.089Z,99343.13
2023-10-23T11:22:27.316Z,99346.44
2023-10-23T11:24:54.416Z,99341.28
2023-10-23T11:27:21.892Z,99340.03
2023-10-23T11:29:49.337Z,99331.53
2023-10-23T11:32:18.274Z,99315.44
2023-10-23T11:34:48.737Z,99322.03
2023-10-23T11:37:15.831Z,99312.94
2023-10-23T11:39:43.547Z,99310.84
2023-10-23T11:42:11.803Z,99307.97
2023-10-23T11:44:41.012Z,99305.88
2023-10-23T11:47:08.996Z,99311.81
2023-10-23T11:49:36.526Z,99297.38
2023-10-23T11:52:04.073Z,99297.16
2023-10-23T11:54:31.194Z,99285.16
2023-10-23T11:57:00.344Z,99287.63
2023-10-23T11:59:28.179Z,99290.88
2023-10-23T12:01:59.429Z,99290.06
2023-10-23T12:04:26.727Z,99286.72
2023-10-23T12:06:53.897Z,99278.44
2023-10-23T12:09:20.921Z,99263.56
2023-10-23T12:11:47.897Z,99261.88
2023-10-23T12:14:14.872Z,99261.41
2023-10-23T12:16:41.901Z,99253.94
2023-10-23T12:19:10.663Z,99255.97
2023-10-23T12:21:38.375Z,99251.81
2023-10-23T12:28:11.800Z,99235.06
2023-10-23T12:30:38.854Z,99224.22
2023-10-23T12:33:19.096Z,99211.19
2023-10-23T12:35:53.230Z,99217.50
2023-10-23T12:38:20.230Z,99206.31
2023-10-23T12:40:49.700Z,99209.13
2023-10-23T12:43:16.819Z,99200.84
2023-10-23T12:45:44.055Z,99197.91
2023-10-23T12:48:11.716Z,99188.00
2023-10-23T12:50:39.080Z,99195.22
2023-10-23T12:53:06.593Z,99194.16
2023-10-23T12:55:33.668Z,99201.78
2023-10-23T12:58:03.886Z,99190.34
2023-10-23T13:00:34.150Z,99189.88
2023-10-23T13:03:01.204Z,99174.34
2023-10-23T13:05:28.286Z,99155.09
2023-10-23T13:07:55.756Z,99162.94
2023-10-23T13:10:22.801Z,99154.06
2023-10-23T13:12:49.829Z,99148.69
2023-10-23T13:15:22.268Z,99146.00
2023-10-23T13:17:49.416Z,99146.25
2023-10-23T13:20:51.637Z,99137.72
2023-10-23T13:23:03.931Z,99131.19
2023-10-23T13:25:31.016Z,99124.16
2023-10-23T13:27:58.081Z,99124.97
2023-10-23T13:30:25.236Z,99109.72
2023-10-23T13:32:52.380Z,99110.75
2023-10-23T13:35:19.541Z,99108.06
2023-10-23T13:37:46.875Z,99112.16
2023-10-23T13:40:14.049Z,99106.53
2023-10-23T13:42:41.120Z,99105.25
2023-10-23T13:45:09.077Z,99106.66
2023-10-23T13:47:36.173Z,99109.59
2023-10-23T13:50:03.212Z,99107.47
2023-10-23T13:52:30.314Z,99099.19
2023-10-23T13:54:57.567Z,99094.31
2023-10-23T13:57:26.085Z,99081.44
2023-10-23T13:59:53.149Z,99059.97
2023-10-23T14:02:20.451Z,99049.22
2023-10-23T14:04:49.509Z,99023.69
2023-10-23T14:07:16.684Z,99016.31
2023-10-23T14:09:47.211Z,99015.03
2023-10-23T14:12:17.160Z,99017.53
2023-10-23T14:14:44.479Z,99012.28
2023-10-23T14:17:11.549Z,99016.72
2023-10-23T14:19:47.984Z,99021.13
2023-10-23T14:22:17.667Z,99020.19
2023-10-23T14:24:44.818Z,99005.06
2023-10-23T14:27:11.936Z,99011.13
2023-10-23T14:29:39.139Z,99007.88
2023-10-23T14:32:07.345Z,99003.75
2023-10-23T14:34:34.486Z,99005.88
2023-10-23T14:37:01.853Z,99007.97
2023-10-23T14:39:29.125Z,99005.19
2023-10-23T14:41:56.740Z,98999.00
2023-10-23T14:44:32.926Z,99006.22
2023-10-23T14:47:00.017Z,98979.28
2023-10-23T14:49:27.704Z,98983.84
2023-10-23T14:51:55.035Z,98973.09
2023-10-23T14:54:22.162Z,98985.69
2023-10-23T14:56:50.945Z,98983.03
2023-10-23T14:59:18.541Z,98977.88
2023-10-23T15:01:52.174Z,98968.19
2023-10-23T15:04:19.309Z,98964.69
2023-10-23T15:06:46.416Z,98956.66
2023-10-23T15:09:13.403Z,98950.47
2023-10-23T15:11:40.382Z,98955.03
2023-10-23T15:14:08.268Z,98965.16
2023-10-23T15:16:36.999Z,98956.50
2023-10-23T15:19:04.770Z,98955.94
2023-10-23T15:21:31.885Z,98948.94
2023-10-23T15:23:59.655Z,98944.63
2023-10-23T15:26:26.880Z,98943.22
2023-10-23T15:28:54.342Z,98946.13
2023-10-23T15:31:21.423Z,98943.69
2023-10-23T15:33:48.520Z,98939.38
2023-10-23T15:36:15.560Z,98937.50
2023-10-23T15:38:43.130Z,98929.47
2023-10-23T15:41:12.840Z,98892.44
2023-10-23T15:43:41.755Z,98864.56
2023-10-23T15:46:14.775Z,98861.91
2023-10-23T15:48:42.510Z,98852.81
2023-10-23T15:51:10.280Z,98846.88
2023-10-23T15:53:37.668Z,98835.31
2023-10-23T15:56:05.211Z,98839.84
2023-10-23T15:58:33.184Z,98839.53
2023-10-23T16:01:04.561Z,98828.81
2023-10-23T16:03:35.343Z,98833.09
2023-10-23T16:06:04.606Z,98841.63
2023-10-23T16:08:31.671Z,98848.25
2023-10-23T16:11:00.850Z,98839.16
2023-10-23T16:13:32.005Z,98838.09
2023-10-23T16:16:15.886Z,98833.59
2023-10-23T16:18:45.440Z,98826.34
2023-10-23T16:21:15.158Z,98833.59
2023-10-23T16:23:42.536Z,98833.59
2023-10-23T16:26:09.719Z,98846.97
2023-10-23T16:28:36.854Z,98855.84
2023-10-23T16:31:04.259Z,98858.53
2023-10-23T16:33:31.367Z,98862.81
2023-10-23T16:35:58.356Z,98864.44
2023-10-23T16:38:25.442Z,98874.59
2023-10-23T16:40:52.489Z,98886.94
2023-10-23T16:43:20.050Z,98891.25
2023-10-23T16:45:47.181Z,98882.16
2023-10-23T16:48:14.301Z,98894.75
2023-10-23T16:50:41.886Z,98903.59
2023-10-23T16:53:08.908Z,98901.97
2023-10-23T16:55:38.917Z,98892.31
2023-10-23T16:58:05.903Z,98882.63
2023-10-23T17:00:33.256Z,98896.03
2023-10-23T17:03:02.764Z,98892.19
2023-10-23T17:05:29.893Z,98891.13
2023-10-23T17:07:57.225Z,98877.16
2023-10-23T17:10:24.245Z,98870.16
2023-10-23T17:12:51.302Z,98885.63
2023-10-23T17:15:18.427Z,98896.34
2023-10-23T17:17:45.450Z,98913.50
2023-10-23T17:20:12.732Z,98920.47
2023-10-23T17:22:39.938Z,98915.13
2023-10-23T17:25:08.948Z,98914.53
2023-10-23T17:27:36.680Z,98925.25
2023-10-23T17:30:04.343Z,98944.03
2023-10-23T17:32:31.852Z,98942.38
2023-10-23T17:34:59.011Z,98937.03
2023-10-23T17:37:26.022Z,98927.38
2023-10-23T17:39:53.060Z,98937.03
2023-10-23T17:42:20.074Z,98939.72
2023-10-23T17:44:47.267Z,98945.31
2023-10-23T17:47:14.516Z,98948.81
2023-10-23T17:49:41.851Z,98934.59
2023-10-23T17:52:10.177Z,98945.31
2023-10-23T17:54:38.587Z,98948.00
2023-10-23T17:57:05.818Z,98954.41
2023-10-23T17:59:34.513Z,98960.56
2023-10-23T18:02:01.749Z,98972.31
2023-10-23T18:04:29.069Z,98983.63
2023-10-23T18:06:56.128Z,98994.34
2023-10-23T18:09:23.204Z,98991.69
2023-10-23T18:11:50.218Z,98995.41
2023-10-23T18:14:17.242Z,99011.25
2023-10-23T18:16:46.514Z,99021.72
2023-10-23T18:19:16.142Z,99005.66
2023-10-23T18:21:44.062Z,99004.03
2023-10-23T18:24:13.396Z,98980.72
2023-10-23T18:26:40.407Z,98966.50
2023-10-23T18:29:07.528Z,98965.69
2023-10-23T18:31:34.734Z,98952.53
2023-10-23T18:34:01.822Z,98969.63
2023-10-23T18:36:29.255Z,98979.53
2023-10-23T18:38:56.441Z,98984.31
2023-10-23T18:41:23.477Z,98988.84
2023-10-23T18:43:50.588Z,98989.91
2023-10-23T18:46:17.819Z,98988.28
2023-10-23T18:48:45.223Z,98999.81
2023-10-23T18:51:13.563Z,98996.31
2023-10-23T18:53:43.317Z,99008.09
2023-10-23T18:56:10.580Z,99002.72
2023-10-23T18:58:37.589Z,99001.06
2023-10-23T19:01:08.965Z,98990.34
2023-10-23T19:03:38.489Z,98992.44
2023-10-23T19:06:06.461Z,99009.56
2023-10-23T19:08:33.533Z,99010.63
2023-10-23T19:11:00.727Z,99010.63
2023-10-23T19:13:27.978Z,99002.81
2023-10-23T19:15:59.988Z,99003.63
2023-10-23T19:18:30.154Z,99005.72
2023-10-23T19:21:04.084Z,99015.59
2023-10-23T19:23:31.068Z,99011.31
2023-10-23T19:25:58.157Z,99005.94
2023-10-23T19:28:25.783Z,99003.25
2023-10-23T19:30:54.668Z,99006.75
2023-10-23T19:33:22.432Z,98997.09
2023-10-23T19:35:49.824Z,98978.91
2023-10-23T19:38:20.924Z,98975.19
2023-10-23T19:40:51.989Z,98955.41
2023-10-23T19:43:26.065Z,98926.53
2023-10-23T19:45:53.465Z,98893.56
2023-10-23T19:48:21.040Z,98864.09
2023-10-23T19:50:48.793Z,98867.59
2023-10-23T19:53:16.895Z,98883.91
2023-10-23T19:55:46.841Z,98879.59
2023-10-23T19:58:16.666Z,98879.22
2023-10-23T20:00:43.838Z,98859.91
2023-10-23T20:03:11.416Z,98860.34
2023-10-23T20:05:38.646Z,98864.09
2023-10-23T20:08:07.065Z,98862.69
2023-10-23T20:10:34.429Z,98865.00
2023-10-23T20:13:01.636Z,98858.03
2023-10-23T20:15:30.508Z,98858.03
2023-10-23T20:17:57.724Z,98875.13
2023-10-23T20:20:26.623Z,98852.31
2023-10-23T20:22:53.848Z,98831.34
2023-10-23T20:25:21.319Z,98846.84
2023-10-23T20:27:48.519Z,98867.22
2023-10-23T20:30:15.632Z,98865.34
2023-10-23T20:32:42.864Z,98861.03
2023-10-23T20:35:10.209Z,98853.00
2023-10-23T20:37:37.478Z,98838.81
2023-10-23T20:40:06.187Z,98847.06
2023-10-23T20:42:35.454Z,98858.81
2023-10-23T20:45:03.897Z,98854.25
2023-10-23T20:47:33.389Z,98872.19
2023-10-23T20:50:00.757Z,98867.88
2023-10-23T20:52:29.465Z,98876.53
2023-10-23T20:54:57.546Z,98870.94
2023-10-23T20:57:25.148Z,98876.06
2023-10-23T20:59:52.353Z,98874.19
2023-10-23T21:02:19.464Z,98875.00
2023-10-23T21:04:46.526Z,98894.31
2023-10-23T21:07:13.605Z,98887.94
2023-10-23T21:09:40.878Z,98893.88
2023-10-23T21:12:08.299Z,98892.03
2023-10-23T21:14:50.004Z,98900.06
2023-10-23T21:17:18.147Z,98898.19
2023-10-23T21:19:45.240Z,98903.53
2023-10-23T21:22:12.414Z,98904.59
2023-10-23T21:24:39.512Z,98900.88
2023-10-23T21:27:07.389Z,98904.84
2023-10-23T21:29:34.461Z,98902.34
2023-10-23T21:32:01.769Z,98891.06
2023-10-23T21:34:28.903Z,98874.19
2023-10-23T21:36:56.059Z,98863.47
2023-10-23T21:39:23.182Z,98873.38
2023-10-23T21:41:50.258Z,98872.56
2023-10-23T21:44:17.276Z,98851.97
2023-10-23T21:46:44.311Z,98854.41
2023-10-23T21:49:11.826Z,98862.78
2023-10-23T21:51:39.409Z,98837.66
2023-10-23T21:54:07.065Z,98847.31
2023-10-23T21:57:14.984Z,98834.50
2023-10-23T21:59:22.554Z,98840.22
2023-10-23T22:01:53.414Z,98834.38
2023-10-23T22:04:21.555Z,98826.13
2023-10-23T22:06:49.236Z,98812.25
2023-10-23T22:09:16.785Z,98799.69
2023-10-23T22:11:44.538Z,98801.31
2023-10-23T22:14:12.143Z,98802.13
2023-10-23T22:16:39.305Z,98778.63
2023-10-23T22:19:06.544Z,98781.06
2023-10-23T22:21:33.717Z,98777.91
2023-10-23T22:24:00.711Z,98787.34
2023-10-23T22:26:30.277Z,98783.94
2023-10-23T22:28:57.248Z,98784.31
2023-10-23T22:31:24.325Z,98779.75
2023-10-23T22:33:51.341Z,98796.66
2023-10-23T22:36:18.344Z,98788.16
2023-10-23T22:38:45.351Z,98789.28
2023-10-23T22:41:12.359Z,98788.84
2023-10-23T22:43:39.394Z,98800.13
2023-10-23T22:46:06.522Z,98802.94
2023-10-23T22:48:33.638Z,98809.91
2023-10-23T22:51:01.409Z,98805.13
2023-10-23T22:53:28.989Z,98784.84
2023-10-23T22:55:57.152Z,98797.53
2023-10-23T22:58:37.505Z,98829.84
2023-10-23T23:01:04.834Z,98820.75
2023-10-23T23:03:32.824Z,98829.84
2023-10-23T23:06:09.820Z,98809.44
2023-10-23T23:08:43.515Z,98821.19
2023-10-23T23:11:10.984Z,98812.94
2023-10-23T23:13:38.314Z,98817.59
2023-10-23T23:16:06.653Z,98832.97
2023-10-23T23:18:38.438Z,98830.16
2023-10-23T23:21:10.495Z,98836.69
2023-10-23T23:23:37.571Z,98844.47
2023-10-23T23:26:05.839Z,98848.78
2023-10-23T23:28:34.696Z,98843.41
2023-10-23T23:31:01.822Z,98851.00
2023-10-23T23:33:30.130Z,98867.22
2023-10-23T23:35:57.234Z,98860.31
2023-10-23T23:38:24.457Z,98845.38
2023-10-23T23:40:52.908Z,98829.59
2023-10-23T23:43:19.942Z,98840.13
2023-10-23T23:45:46.989Z,98828.31
2023-10-23T23:48:15.445Z,98827.28
2023-10-23T23:50:42.569Z,98819.22
2023-10-23T23:53:09.541Z,98819.78
2023-10-23T23:55:36.550Z,98854.09
2023-10-23T23:58:03.572Z,98860.97
